Adams Corners, New York
Current Conditions -  °F | °C
As of 4:45 AM on Thursday 23 Oct 2014 (Local Time) from KSWF Reporting Station
Overcast Overcast  
Wind Chill: 50°   Ceiling: 1500
Heat Index: 50°   Visibility: 10mi
Dew Point: 48°   Wind: 21mph
Humidity: 94%   Direction: 30°NNE
Pressure: 29.77"   Gusts: 31mph
Location:  41.3969°N, 73.8382°W
Report Text: KSWF 230845Z 03018G27KT 10SM OVC015 10/09 A2977
Loading
Personal Weather Stations






























Interactive Weather Map
Tropical Storm Tracking
New forecast layout! Learn more

10-Day Weather Forecast

Advertisements
Track Severe Weather on mobile